sensor_id;sensor_type;location;lat;lon;timestamp;temperature;humidity
27870;DHT22;15225;50.730;4.244;2023-05-07T19:14:04;16.80;70.00
27870;DHT22;15225;50.730;4.244;2023-05-07T19:16:31;16.70;77.10
27870;DHT22;15225;50.730;4.244;2023-05-07T19:18:57;17.00;79.60
27870;DHT22;15225;50.730;4.244;2023-05-07T19:21:22;17.40;68.10
27870;DHT22;15225;50.730;4.244;2023-05-07T19:23:48;18.00;47.70
27870;DHT22;15225;50.730;4.244;2023-05-07T19:26:17;18.50;24.10
27870;DHT22;15225;50.730;4.244;2023-05-07T19:28:44;19.10;1.00
27870;DHT22;15225;50.730;4.244;2023-05-07T19:31:18;19.60;1.00
27870;DHT22;15225;50.730;4.244;2023-05-07T19:33:44;20.00;1.00
27870;DHT22;15225;50.730;4.244;2023-05-07T19:36:10;20.30;99.90
27870;DHT22;15225;50.730;4.244;2023-05-07T19:38:36;20.50;99.90
27870;DHT22;15225;50.730;4.244;2023-05-07T19:41:02;20.60;99.90
27870;DHT22;15225;50.730;4.244;2023-05-07T19:43:30;20.80;99.90
27870;DHT22;15225;50.730;4.244;2023-05-07T19:46:00;20.90;99.90
27870;DHT22;15225;50.730;4.244;2023-05-07T19:48:26;20.80;27.70
27870;DHT22;15225;50.730;4.244;2023-05-07T19:50:52;20.80;47.70
27870;DHT22;15225;50.730;4.244;2023-05-07T19:53:18;20.90;1.00
27870;DHT22;15225;50.730;4.244;2023-05-07T19:55:43;21.00;99.90
27870;DHT22;15225;50.730;4.244;2023-05-07T19:58:09;21.10;99.90
27870;DHT22;15225;50.730;4.244;2023-05-07T20:00:35;21.10;99.90
27870;DHT22;15225;50.730;4.244;2023-05-07T20:03:02;21.00;99.90
27870;DHT22;15225;50.730;4.244;2023-05-07T20:05:28;21.10;99.90
27870;DHT22;15225;50.730;4.244;2023-05-07T20:07:54;21.00;99.90
27870;DHT22;15225;50.730;4.244;2023-05-07T20:10:20;20.30;82.10
27870;DHT22;15225;50.730;4.244;2023-05-07T20:12:46;20.00;99.90
27870;DHT22;15225;50.730;4.244;2023-05-07T20:15:12;20.10;99.90
27870;DHT22;15225;50.730;4.244;2023-05-07T20:17:38;20.10;99.90
27870;DHT22;15225;50.730;4.244;2023-05-07T20:20:05;20.10;99.90
27870;DHT22;15225;50.730;4.244;2023-05-07T20:22:30;20.30;99.90
27870;DHT22;15225;50.730;4.244;2023-05-07T20:24:57;20.40;99.90
27870;DHT22;15225;50.730;4.244;2023-05-07T20:27:23;20.50;67.80
27870;DHT22;15225;50.730;4.244;2023-05-07T20:29:56;20.70;50.10
27870;DHT22;15225;50.730;4.244;2023-05-07T20:32:22;20.70;1.00
27870;DHT22;15225;50.730;4.244;2023-05-07T20:34:48;20.60;32.90
27870;DHT22;15225;50.730;4.244;2023-05-07T20:37:14;20.70;1.00
27870;DHT22;15225;50.730;4.244;2023-05-07T20:39:41;20.50;42.10
27870;DHT22;15225;50.730;4.244;2023-05-07T20:42:07;20.60;1.00
27870;DHT22;15225;50.730;4.244;2023-05-07T20:44:34;20.70;1.00
27870;DHT22;15225;50.730;4.244;2023-05-07T20:47:01;20.50;94.50
27870;DHT22;15225;50.730;4.244;2023-05-07T20:49:27;20.50;99.90
27870;DHT22;15225;50.730;4.244;2023-05-07T20:51:52;20.50;99.90
27870;DHT22;15225;50.730;4.244;2023-05-07T20:54:18;20.50;99.90
27870;DHT22;15225;50.730;4.244;2023-05-07T20:56:44;20.60;49.10
27870;DHT22;15225;50.730;4.244;2023-05-07T20:59:10;20.70;6.90
27870;DHT22;15225;50.730;4.244;2023-05-07T21:01:36;20.70;20.90
27870;DHT22;15225;50.730;4.244;2023-05-07T21:04:02;20.80;1.00
27870;DHT22;15225;50.730;4.244;2023-05-07T21:06:28;20.80;1.00
27870;DHT22;15225;50.730;4.244;2023-05-07T21:08:54;20.80;1.00
27870;DHT22;15225;50.730;4.244;2023-05-07T21:11:20;20.70;1.00
27870;DHT22;15225;50.730;4.244;2023-05-07T21:13:46;20.60;1.00
27870;DHT22;15225;50.730;4.244;2023-05-07T21:16:12;20.60;1.00
27870;DHT22;15225;50.730;4.244;2023-05-07T21:18:38;20.60;53.80
27870;DHT22;15225;50.730;4.244;2023-05-07T21:21:08;20.50;86.80
27870;DHT22;15225;50.730;4.244;2023-05-07T21:23:34;20.60;88.70
27870;DHT22;15225;50.730;4.244;2023-05-07T21:26:00;20.50;99.90
27870;DHT22;15225;50.730;4.244;2023-05-07T21:28:26;20.50;99.90
27870;DHT22;15225;50.730;4.244;2023-05-07T21:30:52;20.50;99.90
27870;DHT22;15225;50.730;4.244;2023-05-07T21:33:19;20.30;1.00
27870;DHT22;15225;50.730;4.244;2023-05-07T21:35:45;19.90;99.90
